Aeroporto :
LOGIN :

Iscrizione | Disclaimer

   EN    FR    IT 

 










Sommario :    VFR   VFR Marginale   IFR   IFR Intensivo   IFR Molto Intensivo
Visibilità : 
Base nubi : 
>= 8 km
>= 3000ft
5 / 8 km
1000 / 3000 ft
1500m / 5 km
500 / 1000 ft
800 / 1500m
200 / 500 ft
< 800m
< 200 ft
Simboli :   Temporali  Nebbia  Neve Forte  Precipitazioni Forti  Vento > 20 kt
SIGMETs :   Varie  Temporali  Ghiacco  Turbolenza  Onda orograficha  Ceneri Vulcaniche






- Altitudine del aeroporto : 53 ft
- Codice IATA : HRT


EGXU - RAF Linton-on-Ouse

ULTIMO METAR :
  • 141350Z 03019KT 9999 FEW030 BKN070 07/02 Q1002 RMK BLU

METARs OBSOLETI :
  • 141320Z 02015KT 9999 FEW030 BKN070 07/02 Q1002 RMK BLU
  • 141220Z 03013KT 9999 FEW040 BKN100 07/02 Q1002 RMK BLU
  • 141150Z 02013KT 9999 FEW042 BKN100 07/02 Q1002 RMK BLU
  • 141120Z 02014KT 9999 FEW042 BKN090 07/02 Q1002 RMK BLU
  • 141050Z 02015KT 9999 FEW042 BKN090 07/03 Q1001 RMK BLU

TAF TAF EGXU
Valido dal 14 a 12 ore il 14 a 19 ore UTC


141049Z 1412/1419 02010KT 9999 FEW025 SCT045
TEMPO 1412/1419 02016G26KT
BECMG 1416/1418 6000 RA BKN018



MetMap, La meteo Aeronautica in un colpo d'occhio ! - Copyright ORBIFLY Dicembre 2007 - Disclaimer

ORBIFLY MET'MAP TEAM :

Programmazione e sviluppo : Alexandra Zaïnal
Concezione e sviluppo : Baudouin d'Aumeries
Co-Programmazione e sviluppo : Marc-Olivier Méhu
Supporto tecnico e logistico : Manuel Goepfert
Aiuto per la traduzione : Arnaldo La Scala

Contatto : metmap@orbifly.com




FONTI E CREDITI :

   NOAA